Time;durP1;ratioP1;P1;durP2;ratioP2;P2;SDS_P1;SDS_P2;PMS_P1;PMS_P2;Temp;Humidity;BMP_temperature;BMP_pressure;BME280_temperature;BME280_humidity;BME280_pressure;Samples;Min_cycle;Max_cycle;Signal;HPM_P1;HPM_P2
2024/02/04 00:00:48;;;;;;;12.53;10.27;;;10.60;99.90;;;;;;5029807;28;20223;-66
2024/02/04 00:03:14;;;;;;;10.53;8.70;;;10.60;99.90;;;;;;5028958;28;20194;-69
2024/02/04 00:05:39;;;;;;;10.30;8.63;;;10.60;99.90;;;;;;5029714;28;20268;-66
2024/02/04 00:08:05;;;;;;;11.10;8.90;;;10.60;99.90;;;;;;5028881;28;20467;-63
2024/02/04 00:10:31;;;;;;;9.70;8.70;;;10.60;99.90;;;;;;5029213;28;20257;-68
2024/02/04 00:12:56;;;;;;;13.23;9.23;;;10.60;99.90;;;;;;5029388;28;20759;-67
2024/02/04 00:15:22;;;;;;;10.43;8.17;;;10.60;99.90;;;;;;5028236;28;20222;-65
2024/02/04 00:17:48;;;;;;;8.67;7.67;;;10.70;99.90;;;;;;5029252;28;20455;-68
2024/02/04 00:20:14;;;;;;;10.03;7.43;;;10.70;99.90;;;;;;5028646;28;20290;-69
2024/02/04 00:22:39;;;;;;;8.47;7.57;;;10.60;99.90;;;;;;5029766;28;20802;-68
2024/02/04 00:25:06;;;;;;;8.63;7.47;;;10.60;99.90;;;;;;5028640;28;20185;-69
2024/02/04 00:27:32;;;;;;;8.83;7.37;;;10.60;99.90;;;;;;5028000;28;20920;-65
2024/02/04 00:29:58;;;;;;;7.50;6.70;;;10.60;99.90;;;;;;5030395;28;20517;-66
2024/02/04 00:32:25;;;;;;;8.97;6.93;;;10.60;99.90;;;;;;5029965;28;20429;-69
2024/02/04 00:34:51;;;;;;;7.40;6.60;;;10.50;99.90;;;;;;5031160;28;20469;-66
2024/02/04 00:37:17;;;;;;;6.83;5.93;;;10.50;99.90;;;;;;5029058;28;20785;-68
2024/02/04 00:39:42;;;;;;;7.30;5.70;;;10.50;99.90;;;;;;5030159;28;20436;-66
2024/02/04 00:42:08;;;;;;;7.23;6.27;;;10.50;99.90;;;;;;5029701;28;20185;-66
2024/02/04 00:44:34;;;;;;;6.33;5.50;;;10.50;99.90;;;;;;5031387;28;20179;-69
2024/02/04 00:46:59;;;;;;;8.10;4.60;;;10.50;99.90;;;;;;5030373;28;20848;-66
2024/02/04 00:49:26;;;;;;;5.50;4.93;;;10.50;99.90;;;;;;5031506;28;20918;-68
2024/02/04 00:51:52;;;;;;;8.10;4.90;;;10.50;99.90;;;;;;5030655;28;20186;-68
2024/02/04 00:54:18;;;;;;;4.90;4.40;;;10.50;99.90;;;;;;5030641;28;20436;-69
2024/02/04 00:56:44;;;;;;;5.87;5.10;;;10.50;99.90;;;;;;5030182;28;20527;-69
2024/02/04 00:59:10;;;;;;;4.33;3.93;;;10.50;99.90;;;;;;5030578;28;20443;-66
2024/02/04 01:01:36;;;;;;;4.03;3.40;;;10.50;99.90;;;;;;5030398;28;20425;-67
2024/02/04 01:04:02;;;;;;;4.37;3.63;;;10.50;99.90;;;;;;5030535;28;20775;-68
2024/02/04 01:06:29;;;;;;;3.97;3.63;;;10.50;99.90;;;;;;5030320;28;20678;-68
2024/02/04 01:08:55;;;;;;;2.60;2.20;;;10.50;99.90;;;;;;5030783;28;20179;-69
2024/02/04 01:11:21;;;;;;;2.43;2.23;;;10.50;99.90;;;;;;5030525;28;20428;-65
2024/02/04 01:13:47;;;;;;;2.53;2.30;;;10.50;99.90;;;;;;5030320;28;20428;-67
2024/02/04 01:16:13;;;;;;;3.13;2.30;;;10.50;99.90;;;;;;5029580;28;20700;-66
2024/02/04 01:18:39;;;;;;;4.77;2.40;;;10.50;99.90;;;;;;5030907;28;20186;-69
2024/02/04 01:21:04;;;;;;;2.87;2.57;;;10.40;99.90;;;;;;5030167;28;20428;-68
2024/02/04 01:23:30;;;;;;;3.20;2.80;;;10.40;99.90;;;;;;5014495;28;20185;-70
2024/02/04 01:25:56;;;;;;;2.33;2.13;;;10.50;99.90;;;;;;5030318;28;20475;-67
2024/02/04 01:28:21;;;;;;;2.80;2.47;;;10.40;99.90;;;;;;5029427;28;20191;-66
2024/02/04 01:30:47;;;;;;;1.90;1.80;;;10.40;99.90;;;;;;5029913;28;20247;-66
2024/02/04 01:33:13;;;;;;;2.97;2.13;;;10.50;99.90;;;;;;5030344;28;20178;-64
2024/02/04 01:35:39;;;;;;;2.57;2.10;;;10.40;99.90;;;;;;5030200;28;20209;-69
2024/02/04 01:38:04;;;;;;;2.13;1.93;;;10.40;99.90;;;;;;5030428;28;20425;-70
2024/02/04 01:40:30;;;;;;;2.27;2.07;;;10.40;99.90;;;;;;5030177;28;21024;-69
2024/02/04 01:42:56;;;;;;;3.40;2.23;;;10.40;99.90;;;;;;5030627;28;20262;-67
2024/02/04 01:45:22;;;;;;;2.10;1.93;;;10.40;99.90;;;;;;5030368;28;20218;-66
2024/02/04 01:47:49;;;;;;;2.20;1.90;;;10.40;99.90;;;;;;5029756;28;20202;-65
2024/02/04 01:50:15;;;;;;;2.33;2.13;;;10.50;99.90;;;;;;5031820;28;20460;-70
2024/02/04 01:52:43;;;;;;;2.67;2.47;;;10.50;99.90;;;;;;5034864;28;20428;-67
2024/02/04 01:55:09;;;;;;;2.50;2.30;;;10.50;99.90;;;;;;5033430;28;21033;-66
2024/02/04 01:57:35;;;;;;;3.27;2.23;;;10.40;99.90;;;;;;5033689;28;20429;-68
2024/02/04 02:00:04;;;;;;;3.73;2.60;;;10.50;99.90;;;;;;5034574;28;20817;-68
2024/02/04 02:02:30;;;;;;;2.73;2.27;;;10.50;99.90;;;;;;5033149;28;20424;-71
2024/02/04 02:04:57;;;;;;;2.53;2.33;;;10.50;99.90;;;;;;5034818;28;20433;-65
2024/02/04 02:07:27;;;;;;;2.30;2.10;;;10.50;99.90;;;;;;5032682;28;20516;-68
2024/02/04 02:09:53;;;;;;;3.87;2.50;;;10.50;99.90;;;;;;5034238;28;20490;-65
2024/02/04 02:12:29;;;;;;;3.47;3.17;;;10.50;99.90;;;;;;5032698;28;20450;-66
2024/02/04 02:15:03;;;;;;;4.70;3.93;;;10.50;99.90;;;;;;5034351;28;20561;-67
2024/02/04 02:17:51;;;;;;;4.23;3.83;;;10.40;99.90;;;;;;5030810;28;20431;-67
2024/02/04 02:20:26;;;;;;;5.70;5.10;;;10.40;99.90;;;;;;5015874;28;20828;-68
2024/02/04 02:23:12;;;;;;;5.73;4.83;;;10.30;99.90;;;;;;5034087;28;21403;-70
2024/02/04 02:25:39;;;;;;;5.40;4.40;;;10.40;99.90;;;;;;5031806;28;20416;-69
2024/02/04 02:28:05;;;;;;;5.87;5.00;;;10.40;99.90;;;;;;5032576;28;20536;-67
2024/02/04 02:30:31;;;;;;;6.70;5.83;;;10.40;99.90;;;;;;5032984;28;21049;-71
2024/02/04 02:32:57;;;;;;;7.53;6.73;;;10.50;99.90;;;;;;5033877;28;20421;-68
2024/02/04 02:35:23;;;;;;;7.93;6.50;;;10.50;99.90;;;;;;5032540;28;20217;-67
2024/02/04 02:37:57;;;;;;;8.17;7.37;;;10.50;99.90;;;;;;5033408;28;20427;-67
2024/02/04 02:40:30;;;;;;;8.73;7.80;;;10.50;99.90;;;;;;5032325;28;20416;-66
2024/02/04 02:43:00;;;;;;;8.30;7.40;;;10.50;99.90;;;;;;5033815;28;20429;-66
2024/02/04 02:45:26;;;;;;;9.23;8.30;;;10.50;99.90;;;;;;5032144;28;20463;-67
2024/02/04 02:47:53;;;;;;;8.67;7.80;;;10.50;99.90;;;;;;5034447;28;20448;-65
2024/02/04 02:50:20;;;;;;;8.80;7.90;;;10.60;99.90;;;;;;5031867;28;20447;-69
2024/02/04 02:52:45;;;;;;;8.13;7.30;;;10.50;99.90;;;;;;5033062;28;21469;-66
2024/02/04 02:55:11;;;;;;;9.33;8.43;;;10.50;99.90;;;;;;5033326;28;20472;-68
2024/02/04 02:57:37;;;;;;;9.30;8.27;;;10.50;99.90;;;;;;5031745;28;20183;-70
2024/02/04 03:00:05;;;;;;;9.77;8.73;;;10.50;99.90;;;;;;5033842;28;20223;-69
2024/02/04 03:02:31;;;;;;;10.57;8.77;;;10.60;99.90;;;;;;5031511;28;20224;-67
2024/02/04 03:04:57;;;;;;;10.53;9.47;;;10.60;99.90;;;;;;5033141;28;20465;-69
2024/02/04 03:07:22;;;;;;;10.87;9.60;;;10.60;99.90;;;;;;5032548;28;21293;-69
2024/02/04 03:09:48;;;;;;;10.87;9.73;;;10.60;99.90;;;;;;5032584;28;20619;-66
2024/02/04 03:12:14;;;;;;;11.73;10.40;;;10.60;99.90;;;;;;5033171;28;20191;-67
2024/02/04 03:14:39;;;;;;;12.97;11.20;;;10.60;99.90;;;;;;5031989;28;20174;-67
2024/02/04 03:17:05;;;;;;;13.93;10.40;;;10.70;99.90;;;;;;5031102;28;20281;-65
2024/02/04 03:19:31;;;;;;;14.07;11.67;;;10.70;99.90;;;;;;5032058;28;20553;-67
2024/02/04 03:21:56;;;;;;;15.87;12.63;;;10.70;99.90;;;;;;5032525;28;20182;-69
2024/02/04 03:24:22;;;;;;;17.77;13.30;;;10.70;99.90;;;;;;5032730;28;20193;-67
2024/02/04 03:26:48;;;;;;;17.43;13.07;;;10.70;99.90;;;;;;5031837;28;20730;-67
2024/02/04 03:29:13;;;;;;;15.43;12.70;;;10.70;99.90;;;;;;5031267;28;20536;-66
2024/02/04 03:31:39;;;;;;;18.30;14.50;;;10.70;99.90;;;;;;5031441;28;20190;-69
2024/02/04 03:34:05;;;;;;;17.40;13.73;;;10.70;99.90;;;;;;5032820;28;20182;-68
2024/02/04 03:36:31;;;;;;;15.53;13.53;;;10.80;99.90;;;;;;5031203;28;20218;-66
2024/02/04 03:38:57;;;;;;;16.63;13.50;;;10.70;99.90;;;;;;5032101;28;20295;-69
2024/02/04 03:41:23;;;;;;;17.67;13.73;;;10.70;99.90;;;;;;5032681;28;20555;-71
2024/02/04 03:43:48;;;;;;;17.83;13.03;;;10.70;99.90;;;;;;5031561;28;21099;-70
2024/02/04 03:46:15;;;;;;;15.87;13.00;;;10.70;99.90;;;;;;5032156;28;20197;-68
2024/02/04 03:48:41;;;;;;;16.07;13.03;;;10.80;99.90;;;;;;5032187;28;20428;-71
2024/02/04 03:51:07;;;;;;;17.33;13.50;;;10.80;99.90;;;;;;5030433;28;20429;-65
2024/02/04 03:53:33;;;;;;;18.40;13.27;;;10.80;99.90;;;;;;5032170;28;20478;-67
2024/02/04 03:55:59;;;;;;;19.03;13.50;;;10.80;99.90;;;;;;5030641;28;20210;-67
2024/02/04 03:58:29;;;;;;;15.80;12.57;;;10.80;99.90;;;;;;5032948;28;20980;-69
2024/02/04 04:00:58;;;;;;;16.80;13.00;;;10.80;99.90;;;;;;5031358;28;20183;-68
2024/02/04 04:03:24;;;;;;;16.80;12.67;;;10.80;99.90;;;;;;5032205;28;20425;-67
2024/02/04 04:05:50;;;;;;;15.87;12.93;;;10.80;99.90;;;;;;5031170;28;20546;-68
2024/02/04 04:08:17;;;;;;;17.43;13.47;;;10.80;99.90;;;;;;5032357;28;20269;-70
2024/02/04 04:10:43;;;;;;;16.87;13.23;;;10.80;99.90;;;;;;5031362;28;20482;-71
2024/02/04 04:13:09;;;;;;;17.27;14.13;;;10.70;99.90;;;;;;5031306;28;20420;-68
2024/02/04 04:15:35;;;;;;;19.00;14.13;;;10.70;99.90;;;;;;5031281;28;20676;-66
2024/02/04 04:18:00;;;;;;;16.30;14.40;;;10.80;99.90;;;;;;5031904;28;20686;-68
2024/02/04 04:20:26;;;;;;;21.03;15.57;;;10.70;99.90;;;;;;5031249;28;20985;-70
2024/02/04 04:22:52;;;;;;;16.70;14.30;;;10.70;99.90;;;;;;5031444;28;20620;-69
2024/02/04 04:25:17;;;;;;;17.30;14.70;;;10.70;99.90;;;;;;5030921;28;20202;-68
2024/02/04 04:27:43;;;;;;;17.70;15.17;;;10.70;99.90;;;;;;5029822;28;20272;-66
2024/02/04 04:30:10;;;;;;;19.93;15.73;;;10.70;99.90;;;;;;5030220;28;20582;-69
2024/02/04 04:32:36;;;;;;;19.93;15.37;;;10.80;99.90;;;;;;5031682;28;20426;-68
2024/02/04 04:35:02;;;;;;;18.77;15.07;;;10.80;99.90;;;;;;5031422;28;20464;-70
2024/02/04 04:37:27;;;;;;;19.17;15.47;;;10.80;99.90;;;;;;5030680;28;20924;-67
2024/02/04 04:39:53;;;;;;;17.43;13.00;;;10.80;99.90;;;;;;5031216;28;20185;-69
2024/02/04 04:42:18;;;;;;;17.03;12.00;;;10.80;99.90;;;;;;5030479;28;20181;-66
2024/02/04 04:44:44;;;;;;;15.17;12.43;;;10.80;99.90;;;;;;5029940;28;20198;-69
2024/02/04 04:47:10;;;;;;;16.20;11.57;;;10.80;99.90;;;;;;5030398;28;20193;-69
2024/02/04 04:49:35;;;;;;;17.40;13.00;;;10.70;99.90;;;;;;5031868;28;21088;-70
2024/02/04 04:52:01;;;;;;;16.77;12.43;;;10.70;99.90;;;;;;5030943;28;20189;-68
2024/02/04 04:54:30;;;;;;;16.77;13.43;;;10.70;99.90;;;;;;5031022;28;20217;-66
2024/02/04 04:56:56;;;;;;;19.90;15.10;;;10.70;99.90;;;;;;5024730;28;20222;-66
2024/02/04 04:59:21;;;;;;;21.07;18.63;;;10.70;99.90;;;;;;5028472;28;20450;-68
2024/02/04 05:01:50;;;;;;;24.00;19.17;;;10.70;99.90;;;;;;5029436;28;20194;-69
2024/02/04 05:04:18;;;;;;;23.00;20.10;;;10.70;99.90;;;;;;5028421;28;20945;-68
2024/02/04 05:06:44;;;;;;;30.17;23.73;;;10.60;99.90;;;;;;5027735;28;20455;-69
2024/02/04 05:09:09;;;;;;;26.20;23.37;;;10.70;99.90;;;;;;5027893;28;20424;-68
2024/02/04 05:11:35;;;;;;;31.57;24.30;;;10.60;99.90;;;;;;5028713;28;20292;-67
2024/02/04 05:14:01;;;;;;;30.50;23.90;;;10.60;99.90;;;;;;5028275;28;20714;-65
2024/02/04 05:16:27;;;;;;;24.80;21.97;;;10.60;99.90;;;;;;5026454;28;20225;-68
2024/02/04 05:18:52;;;;;;;28.07;22.27;;;10.60;99.90;;;;;;5028655;28;20178;-70
2024/02/04 05:21:18;;;;;;;26.83;22.43;;;10.60;99.90;;;;;;5029221;28;20194;-67
2024/02/04 05:23:44;;;;;;;28.20;22.90;;;10.60;99.90;;;;;;5029621;28;20655;-66
2024/02/04 05:26:10;;;;;;;27.53;21.40;;;10.60;99.90;;;;;;5031205;28;20182;-70
2024/02/04 05:28:36;;;;;;;27.97;21.63;;;10.60;99.90;;;;;;5033117;28;20935;-66
2024/02/04 05:31:02;;;;;;;25.83;20.80;;;10.60;99.90;;;;;;5032792;28;20193;-67
2024/02/04 05:33:28;;;;;;;22.07;19.60;;;10.60;99.90;;;;;;5032611;28;20194;-68
2024/02/04 05:35:54;;;;;;;21.13;17.47;;;10.60;99.90;;;;;;5030875;28;20480;-69
2024/02/04 05:38:21;;;;;;;22.57;19.50;;;10.60;99.90;;;;;;5031004;28;20185;-69
2024/02/04 05:40:46;;;;;;;23.30;19.07;;;10.60;99.90;;;;;;5031740;28;20186;-65
2024/02/04 05:43:12;;;;;;;22.40;17.77;;;10.60;99.90;;;;;;5031910;28;20424;-66
2024/02/04 05:45:40;;;;;;;22.07;17.63;;;10.60;99.90;;;;;;5033392;28;20218;-69
2024/02/04 05:48:10;;;;;;;20.53;16.80;;;10.60;99.90;;;;;;5031327;28;20237;-68
2024/02/04 05:50:36;;;;;;;18.27;15.23;;;10.60;99.90;;;;;;5032056;28;20440;-70
2024/02/04 05:53:02;;;;;;;18.90;14.90;;;10.60;99.90;;;;;;5031781;28;20423;-68
2024/02/04 05:55:28;;;;;;;21.03;15.80;;;10.60;99.90;;;;;;5031253;28;20966;-66
2024/02/04 05:57:54;;;;;;;20.40;15.63;;;10.60;99.90;;;;;;5031433;28;20910;-66
2024/02/04 06:00:20;;;;;;;22.10;15.33;;;10.60;99.90;;;;;;5031099;28;20437;-69
2024/02/04 06:02:45;;;;;;;20.30;16.00;;;10.60;99.90;;;;;;5032753;28;20217;-68
2024/02/04 06:05:12;;;;;;;19.90;17.50;;;10.70;99.90;;;;;;5031657;28;20174;-66
2024/02/04 06:07:38;;;;;;;20.97;16.57;;;10.70;99.90;;;;;;5032022;28;20185;-68
2024/02/04 06:10:04;;;;;;;20.77;17.20;;;10.60;99.90;;;;;;5032431;28;21136;-68
2024/02/04 06:12:30;;;;;;;19.67;16.80;;;10.70;99.90;;;;;;5031289;28;20223;-70
2024/02/04 06:14:56;;;;;;;21.70;16.87;;;10.70;99.90;;;;;;5032401;28;20433;-68
2024/02/04 06:17:21;;;;;;;20.63;15.80;;;10.70;99.90;;;;;;5032200;28;20186;-66
2024/02/04 06:19:47;;;;;;;21.47;17.67;;;10.70;99.90;;;;;;5032207;28;20210;-68
2024/02/04 06:22:14;;;;;;;24.73;18.63;;;10.70;99.90;;;;;;5029232;28;20259;-68
2024/02/04 06:24:40;;;;;;;24.40;18.43;;;10.70;99.90;;;;;;5032004;28;20210;-70
2024/02/04 06:27:08;;;;;;;24.43;19.40;;;10.70;99.90;;;;;;5029552;28;20430;-66
2024/02/04 06:29:34;;;;;;;27.37;19.10;;;10.70;99.90;;;;;;5031485;28;21398;-67
2024/02/04 06:31:59;;;;;;;23.13;17.40;;;10.70;99.90;;;;;;5030884;28;20436;-69
2024/02/04 06:34:25;;;;;;;20.67;16.70;;;10.60;99.90;;;;;;5030792;28;20425;-66
2024/02/04 06:36:51;;;;;;;19.40;16.70;;;10.70;99.90;;;;;;5030686;28;20249;-68
2024/02/04 06:39:16;;;;;;;22.27;17.17;;;10.70;99.90;;;;;;5030920;28;20292;-66
2024/02/04 06:41:42;;;;;;;20.90;16.67;;;10.70;99.90;;;;;;5031289;28;20187;-69
2024/02/04 06:44:08;;;;;;;21.77;15.90;;;10.70;99.90;;;;;;5031134;28;20183;-70
2024/02/04 06:46:34;;;;;;;22.20;14.80;;;10.60;99.90;;;;;;5030370;28;20598;-69
2024/02/04 06:48:59;;;;;;;19.80;14.60;;;10.70;99.90;;;;;;5032490;28;20801;-67
2024/02/04 06:51:25;;;;;;;21.20;14.53;;;10.70;99.90;;;;;;5030289;28;21630;-66
2024/02/04 06:53:51;;;;;;;20.27;14.70;;;10.70;99.90;;;;;;5031438;28;20466;-67
2024/02/04 06:56:16;;;;;;;20.70;13.97;;;10.70;99.90;;;;;;5029371;28;20676;-66
2024/02/04 06:58:43;;;;;;;18.37;13.57;;;10.60;99.90;;;;;;5031701;28;20302;-69
2024/02/04 07:01:10;;;;;;;22.00;14.57;;;10.60;99.90;;;;;;5030110;28;20655;-67
2024/02/04 07:03:35;;;;;;;18.27;13.63;;;10.60;99.90;;;;;;5030698;28;20426;-66
2024/02/04 07:06:01;;;;;;;18.77;14.40;;;10.60;99.90;;;;;;5029557;28;21002;-68
2024/02/04 07:08:27;;;;;;;17.97;13.03;;;10.60;99.90;;;;;;5029360;28;20186;-69
2024/02/04 07:10:53;;;;;;;17.33;12.97;;;10.60;99.90;;;;;;5031917;28;20268;-69
2024/02/04 07:13:19;;;;;;;15.43;11.70;;;10.60;99.90;;;;;;5032351;28;21443;-66
2024/02/04 07:15:45;;;;;;;16.70;11.33;;;10.60;99.90;;;;;;5032476;28;20214;-69
2024/02/04 07:18:11;;;;;;;15.17;11.87;;;10.60;99.90;;;;;;5030998;28;20425;-66
2024/02/04 07:20:37;;;;;;;18.10;12.80;;;10.60;99.90;;;;;;5032315;28;20187;-69
2024/02/04 07:23:03;;;;;;;19.77;13.93;;;10.60;99.90;;;;;;5033164;28;20490;-67
2024/02/04 07:25:29;;;;;;;17.93;13.60;;;10.60;99.90;;;;;;5031909;28;20829;-69
2024/02/04 07:27:56;;;;;;;18.90;14.37;;;10.60;99.90;;;;;;5032211;28;20428;-69
2024/02/04 07:30:22;;;;;;;19.57;14.40;;;10.60;99.90;;;;;;5031123;28;20198;-67
2024/02/04 07:32:47;;;;;;;20.70;13.83;;;10.60;99.90;;;;;;5032362;28;20429;-65
2024/02/04 07:35:13;;;;;;;19.27;13.10;;;10.60;99.90;;;;;;5032064;28;20217;-67
2024/02/04 07:37:39;;;;;;;19.47;13.47;;;10.60;99.90;;;;;;5032124;28;20210;-69
2024/02/04 07:40:06;;;;;;;16.97;12.90;;;10.70;99.90;;;;;;5032706;28;20186;-71
2024/02/04 07:42:32;;;;;;;18.30;13.30;;;10.70;99.90;;;;;;5031253;28;20177;-68
2024/02/04 07:44:58;;;;;;;16.13;11.50;;;10.70;99.90;;;;;;5032374;28;20425;-66
2024/02/04 07:47:23;;;;;;;14.90;11.60;;;10.70;99.90;;;;;;5029735;28;20817;-71
2024/02/04 07:49:49;;;;;;;16.23;10.47;;;10.70;99.90;;;;;;5032779;28;20197;-65
2024/02/04 07:52:15;;;;;;;16.30;11.30;;;10.70;99.90;;;;;;5032308;28;20188;-66
2024/02/04 07:54:43;;;;;;;14.67;10.10;;;10.70;99.90;;;;;;5032766;28;21100;-68
2024/02/04 07:57:09;;;;;;;13.20;9.97;;;10.70;99.90;;;;;;5031394;28;21259;-71
2024/02/04 07:59:35;;;;;;;14.73;10.07;;;10.70;99.90;;;;;;5032050;28;20504;-68
2024/02/04 08:02:01;;;;;;;13.10;9.20;;;10.70;99.90;;;;;;5031847;28;20436;-68
2024/02/04 08:04:26;;;;;;;10.27;8.90;;;10.70;99.90;;;;;;5030968;28;20537;-69
2024/02/04 08:06:53;;;;;;;12.33;9.00;;;10.70;99.90;;;;;;5031751;28;20478;-67
2024/02/04 08:09:19;;;;;;;10.50;8.37;;;10.70;99.90;;;;;;5032134;28;20197;-67
2024/02/04 08:11:45;;;;;;;11.80;9.33;;;10.70;99.90;;;;;;5031984;28;20429;-66
2024/02/04 08:14:10;;;;;;;11.43;8.00;;;10.60;99.90;;;;;;5031775;28;20644;-67
2024/02/04 08:16:36;;;;;;;10.33;9.00;;;10.70;99.90;;;;;;5030828;28;20312;-67
2024/02/04 08:19:02;;;;;;;8.63;7.73;;;10.70;99.90;;;;;;5030977;28;20190;-66
2024/02/04 08:21:27;;;;;;;10.13;7.57;;;10.70;99.90;;;;;;5031233;28;20269;-64
2024/02/04 08:23:53;;;;;;;9.80;7.33;;;10.70;99.90;;;;;;5032343;28;20181;-68
2024/02/04 08:26:19;;;;;;;6.87;5.93;;;10.70;99.90;;;;;;5030645;28;20213;-68
2024/02/04 08:28:45;;;;;;;6.73;5.70;;;10.60;99.90;;;;;;5030573;28;20960;-68
2024/02/04 08:31:10;;;;;;;6.70;4.97;;;10.60;99.90;;;;;;5031299;28;20209;-66
2024/02/04 08:33:36;;;;;;;4.90;4.40;;;10.60;99.90;;;;;;5030694;28;20237;-67
2024/02/04 08:36:02;;;;;;;7.87;5.27;;;10.60;99.90;;;;;;5030568;28;20214;-69
2024/02/04 08:38:28;;;;;;;5.30;4.80;;;10.60;99.90;;;;;;5031072;28;20216;-65
2024/02/04 08:40:53;;;;;;;8.47;4.03;;;10.60;99.90;;;;;;5031530;28;21047;-69
2024/02/04 08:43:19;;;;;;;4.20;3.80;;;10.50;99.90;;;;;;5031027;28;20190;-70
2024/02/04 08:45:44;;;;;;;4.30;3.47;;;10.50;99.90;;;;;;5030718;28;20193;-68
2024/02/04 08:48:10;;;;;;;4.10;3.70;;;10.50;99.90;;;;;;5031793;28;20300;-69
2024/02/04 08:50:36;;;;;;;3.90;2.97;;;10.50;99.90;;;;;;5030137;28;20194;-68
2024/02/04 08:53:01;;;;;;;3.50;2.73;;;10.50;99.90;;;;;;5031727;28;20194;-68
2024/02/04 08:55:27;;;;;;;5.10;2.20;;;10.50;99.90;;;;;;5029041;28;20718;-69
2024/02/04 08:57:53;;;;;;;3.17;2.13;;;10.50;99.90;;;;;;5030911;28;20588;-69
2024/02/04 09:00:19;;;;;;;2.37;2.07;;;10.50;99.90;;;;;;5030382;28;20183;-70
2024/02/04 09:02:48;;;;;;;2.97;2.57;;;10.50;99.90;;;;;;5030622;28;20215;-68
2024/02/04 09:05:16;;;;;;;4.77;2.37;;;10.50;99.90;;;;;;5031037;28;20507;-68
2024/02/04 09:07:42;;;;;;;2.87;2.57;;;10.60;99.90;;;;;;5029511;28;21170;-68
2024/02/04 09:10:08;;;;;;;3.50;2.70;;;10.60;99.90;;;;;;5030723;28;20430;-65
2024/02/04 09:12:33;;;;;;;3.40;3.10;;;10.60;99.90;;;;;;5029886;28;20531;-67
2024/02/04 09:14:59;;;;;;;3.20;2.80;;;10.60;99.90;;;;;;5030909;28;20680;-66
2024/02/04 09:17:25;;;;;;;3.67;3.13;;;10.70;99.90;;;;;;5029087;28;20228;-67
2024/02/04 09:19:50;;;;;;;4.10;3.43;;;10.70;99.90;;;;;;5030869;28;20186;-69
2024/02/04 09:22:16;;;;;;;3.60;3.30;;;10.70;99.90;;;;;;5031482;28;20182;-65
2024/02/04 09:24:42;;;;;;;3.77;2.80;;;10.70;99.90;;;;;;5030720;28;20189;-65
2024/02/04 09:27:08;;;;;;;4.60;2.90;;;10.70;99.90;;;;;;5029812;28;20424;-66
2024/02/04 09:29:33;;;;;;;4.20;3.50;;;10.70;99.90;;;;;;5029437;28;20173;-68
2024/02/04 09:31:59;;;;;;;4.93;4.10;;;10.70;99.90;;;;;;5030349;28;20768;-70
2024/02/04 09:34:25;;;;;;;7.37;6.10;;;10.70;99.90;;;;;;5030806;28;20227;-64
2024/02/04 09:36:53;;;;;;;7.37;6.47;;;10.70;99.90;;;;;;5029610;28;20210;-68
2024/02/04 09:39:19;;;;;;;10.70;8.10;;;10.70;99.90;;;;;;5030289;28;20571;-69
2024/02/04 09:41:45;;;;;;;9.50;8.50;;;10.70;99.90;;;;;;5029714;28;20422;-68
2024/02/04 09:44:11;;;;;;;11.87;10.53;;;10.70;99.90;;;;;;5031220;28;20436;-69
2024/02/04 09:46:37;;;;;;;12.00;9.70;;;10.60;99.90;;;;;;5029296;28;20198;-66
2024/02/04 09:49:03;;;;;;;12.00;9.80;;;10.60;99.90;;;;;;5029767;28;20784;-65
2024/02/04 09:51:29;;;;;;;10.80;9.10;;;10.60;99.90;;;;;;5029936;28;20181;-68
2024/02/04 09:54:00;;;;;;;10.07;8.43;;;10.70;99.90;;;;;;5030765;28;20982;-67
2024/02/04 09:56:27;;;;;;;10.87;9.67;;;10.60;99.90;;;;;;5030097;28;20508;-65
2024/02/04 09:58:52;;;;;;;15.40;8.87;;;10.60;99.90;;;;;;5029991;28;20429;-66
2024/02/04 10:01:20;;;;;;;9.63;8.60;;;10.70;99.90;;;;;;5029696;28;20459;-67
2024/02/04 10:03:47;;;;;;;10.27;9.13;;;10.70;99.90;;;;;;5028677;28;20187;-67
2024/02/04 10:06:13;;;;;;;10.20;8.80;;;10.70;99.90;;;;;;5029990;28;20412;-67
2024/02/04 10:08:39;;;;;;;9.70;8.70;;;10.70;99.90;;;;;;5030615;28;20455;-68
2024/02/04 10:11:04;;;;;;;9.73;8.73;;;10.70;99.90;;;;;;5031845;28;20425;-67
2024/02/04 10:13:30;;;;;;;11.83;10.00;;;10.70;99.90;;;;;;5034315;28;20177;-64
2024/02/04 10:15:56;;;;;;;10.37;9.30;;;10.70;99.90;;;;;;5033804;28;20213;-69
2024/02/04 10:18:22;;;;;;;9.10;8.20;;;10.70;99.90;;;;;;5033429;28;20187;-66
2024/02/04 10:20:48;;;;;;;11.53;9.40;;;10.70;99.90;;;;;;5033200;28;20459;-68
2024/02/04 10:23:14;;;;;;;9.90;8.90;;;10.70;99.90;;;;;;5033441;28;20507;-71
2024/02/04 10:25:40;;;;;;;10.03;9.03;;;10.70;99.90;;;;;;5032773;28;20214;-67
2024/02/04 10:28:06;;;;;;;10.33;9.13;;;10.80;99.90;;;;;;5033222;28;20919;-68
2024/02/04 10:30:32;;;;;;;9.80;8.70;;;10.80;99.90;;;;;;5033871;28;20221;-70
2024/02/04 10:32:59;;;;;;;12.40;9.10;;;10.80;99.90;;;;;;5033490;28;20436;-67
2024/02/04 10:35:25;;;;;;;9.57;8.60;;;10.80;99.90;;;;;;5032819;28;20517;-69
2024/02/04 10:37:51;;;;;;;9.13;8.20;;;10.80;99.90;;;;;;5017125;28;20440;-68
2024/02/04 10:40:18;;;;;;;10.53;9.30;;;10.80;99.90;;;;;;5032790;28;20567;-69
2024/02/04 10:42:44;;;;;;;10.53;9.43;;;10.80;99.90;;;;;;5032409;28;20912;-65
2024/02/04 10:45:11;;;;;;;11.80;10.50;;;10.80;99.90;;;;;;5032153;28;20449;-66
2024/02/04 10:47:38;;;;;;;9.80;8.73;;;10.80;99.90;;;;;;5032331;28;20487;-67
2024/02/04 10:50:05;;;;;;;9.60;8.70;;;10.90;99.90;;;;;;5032907;28;20428;-68
2024/02/04 10:52:42;;;;;;;10.90;8.47;;;10.90;99.90;;;;;;5032748;28;21148;-69
2024/02/04 10:55:12;;;;;;;11.73;9.00;;;10.90;99.90;;;;;;5032724;28;20432;-71
2024/02/04 10:57:39;;;;;;;10.10;9.00;;;10.80;99.90;;;;;;5032957;28;20433;-65
2024/02/04 11:00:08;;;;;;;9.93;8.83;;;10.80;99.90;;;;;;5032087;28;21294;-69
2024/02/04 11:02:38;;;;;;;8.63;7.73;;;10.80;99.90;;;;;;5031951;28;20452;-70
2024/02/04 11:05:05;;;;;;;6.87;5.90;;;10.90;99.90;;;;;;5032013;28;20452;-65
2024/02/04 11:07:34;;;;;;;7.77;6.50;;;10.90;99.90;;;;;;5032303;28;20420;-68
2024/02/04 11:10:04;;;;;;;6.83;6.13;;;11.00;99.90;;;;;;5031676;28;20429;-69
2024/02/04 11:12:32;;;;;;;9.33;6.70;;;11.00;99.90;;;;;;5032229;28;20428;-69
2024/02/04 11:15:04;;;;;;;6.53;5.93;;;11.00;99.90;;;;;;5032391;28;20523;-68
2024/02/04 11:17:55;;;;;;;7.80;6.00;;;11.10;99.90;;;;;;5030162;28;20423;-69
2024/02/04 11:20:50;;;;;;;7.97;6.30;;;11.20;99.90;;;;;;5030948;28;21243;-67
2024/02/04 11:23:40;;;;;;;7.23;5.33;;;11.20;99.90;;;;;;5014290;28;20959;-69
2024/02/04 11:26:06;;;;;;;6.83;4.77;;;11.20;99.90;;;;;;5031001;28;21118;-67
2024/02/04 11:28:31;;;;;;;7.03;5.63;;;11.20;99.90;;;;;;5030772;28;20437;-65
2024/02/04 11:30:57;;;;;;;7.50;5.73;;;11.10;99.90;;;;;;5031635;28;20965;-70
2024/02/04 11:33:23;;;;;;;6.47;5.87;;;11.20;99.90;;;;;;5032032;28;20248;-68
2024/02/04 11:36:12;;;;;;;6.17;4.73;;;11.20;99.90;;;;;;5030562;28;20232;-68
2024/02/04 11:38:38;;;;;;;5.93;5.33;;;11.20;99.90;;;;;;5032527;28;20186;-68
2024/02/04 11:41:04;;;;;;;4.90;4.30;;;11.20;99.90;;;;;;5030726;28;20433;-70
2024/02/04 11:43:33;;;;;;;4.70;4.17;;;11.20;99.90;;;;;;5031718;28;20423;-68
2024/02/04 11:46:00;;;;;;;4.50;4.10;;;11.20;99.90;;;;;;5030130;28;20429;-67
2024/02/04 11:48:33;;;;;;;4.93;4.40;;;11.20;99.90;;;;;;5032062;28;20510;-70
2024/02/04 11:51:02;;;;;;;4.63;4.13;;;11.20;99.90;;;;;;5060869;28;20535;-66
2024/02/04 11:53:32;;;;;;;3.90;3.50;;;11.20;99.90;;;;;;5031711;28;20438;-69
2024/02/04 11:56:00;;;;;;;4.20;3.80;;;11.20;99.90;;;;;;5030327;28;20461;-69
2024/02/04 11:58:27;;;;;;;4.43;4.03;;;11.10;99.90;;;;;;5031600;28;20433;-66
2024/02/04 12:00:57;;;;;;;4.00;3.60;;;11.20;99.90;;;;;;5030198;28;20440;-66
2024/02/04 12:03:30;;;;;;;4.13;3.53;;;11.10;99.90;;;;;;5031784;28;20439;-69
2024/02/04 12:05:56;;;;;;;3.93;3.53;;;11.10;99.90;;;;;;5029578;28;20420;-67
2024/02/04 12:08:23;;;;;;;4.20;3.80;;;11.20;99.90;;;;;;5032111;28;20475;-66
2024/02/04 12:10:50;;;;;;;4.53;4.10;;;11.20;99.90;;;;;;5030857;28;20437;-67
2024/02/04 12:13:16;;;;;;;4.27;3.63;;;11.10;99.90;;;;;;5030958;28;20419;-71
2024/02/04 12:15:42;;;;;;;4.43;4.03;;;11.10;99.90;;;;;;5030944;28;20468;-67
2024/02/04 12:18:08;;;;;;;4.37;3.97;;;11.10;99.90;;;;;;5031385;28;20425;-68
2024/02/04 12:20:34;;;;;;;4.67;4.17;;;11.10;99.90;;;;;;5031774;28;20435;-67
2024/02/04 12:23:04;;;;;;;5.20;4.30;;;11.10;99.90;;;;;;5030661;28;20427;-67
2024/02/04 12:25:30;;;;;;;5.97;5.17;;;11.10;99.90;;;;;;5030599;28;20185;-68
2024/02/04 12:27:58;;;;;;;6.07;5.33;;;11.10;99.90;;;;;;5030209;28;20433;-69
2024/02/04 12:30:24;;;;;;;6.17;5.57;;;11.10;99.90;;;;;;5031604;28;20965;-67
2024/02/04 12:33:03;;;;;;;6.83;5.77;;;11.10;99.90;;;;;;5031043;28;20433;-70
2024/02/04 12:35:30;;;;;;;8.10;7.13;;;11.10;99.90;;;;;;5031055;28;20947;-71